Time;durP1;ratioP1;P1;durP2;ratioP2;P2;SDS_P1;SDS_P2;PMS_P1;PMS_P2;Temp;Humidity;BMP_temperature;BMP_pressure;BME280_temperature;BME280_humidity;BME280_pressure;Samples;Min_cycle;Max_cycle;Signal;HPM_P1;HPM_P2
2023/02/08 00:02:15;;;;;;;24.40;12.30;;;-4.90;99.90;;;;;;5038856;28;20057;-77
2023/02/08 00:04:40;;;;;;;24.57;11.20;;;-5.00;99.90;;;;;;5033851;28;20411;-77
2023/02/08 00:07:06;;;;;;;23.87;11.33;;;-5.00;99.90;;;;;;5035373;28;20052;-77
2023/02/08 00:09:32;;;;;;;24.43;11.87;;;-5.00;99.90;;;;;;5045496;28;20041;-77
2023/02/08 00:11:57;;;;;;;21.90;12.07;;;-5.00;99.90;;;;;;5040829;28;20025;-77
2023/02/08 00:14:23;;;;;;;21.97;11.73;;;-5.10;99.90;;;;;;5054404;28;20096;-77
2023/02/08 00:16:48;;;;;;;22.97;11.27;;;-5.10;99.90;;;;;;5047391;28;20026;-77
2023/02/08 00:19:14;;;;;;;19.10;10.67;;;-5.10;99.90;;;;;;5036179;28;20071;-77
2023/02/08 00:21:39;;;;;;;25.07;11.57;;;-5.10;99.90;;;;;;5034395;28;20027;-77
2023/02/08 00:24:05;;;;;;;25.57;12.40;;;-5.20;99.90;;;;;;5039156;28;20067;-77
2023/02/08 00:26:31;;;;;;;24.23;11.53;;;-5.20;99.90;;;;;;5044173;28;20366;-77
2023/02/08 00:28:56;;;;;;;24.73;11.73;;;-5.10;99.90;;;;;;5036334;28;20112;-77
2023/02/08 00:31:22;;;;;;;22.60;11.20;;;-5.20;99.90;;;;;;5048015;28;20486;-77
2023/02/08 00:33:47;;;;;;;24.80;12.17;;;-5.20;99.90;;;;;;5037544;28;20124;-77
2023/02/08 00:36:13;;;;;;;20.13;10.93;;;-5.20;99.90;;;;;;5047560;28;20024;-77
2023/02/08 00:38:39;;;;;;;22.87;11.13;;;-5.20;99.90;;;;;;5045125;28;20378;-77
2023/02/08 00:41:05;;;;;;;21.83;10.33;;;-5.30;99.90;;;;;;5041388;28;20025;-77
2023/02/08 00:43:30;;;;;;;22.77;11.57;;;-5.30;99.90;;;;;;5039358;28;20017;-77
2023/02/08 00:45:57;;;;;;;24.90;10.53;;;-5.30;99.90;;;;;;5042645;28;20029;-77
2023/02/08 00:48:24;;;;;;;22.40;12.03;;;-5.30;99.90;;;;;;5038865;28;20044;-77
2023/02/08 00:51:08;;;;;;;24.73;11.43;;;-5.30;99.90;;;;;;5045856;28;20025;-77
2023/02/08 00:53:35;;;;;;;22.53;10.90;;;-5.40;99.90;;;;;;5031940;28;20107;-77
2023/02/08 00:56:01;;;;;;;23.67;11.47;;;-5.40;99.90;;;;;;5052179;28;20021;-77
2023/02/08 00:58:26;;;;;;;26.37;12.13;;;-5.40;99.90;;;;;;5040736;28;20096;-77
2023/02/08 01:00:52;;;;;;;23.67;11.63;;;-5.40;99.90;;;;;;5044564;28;20112;-77
2023/02/08 01:03:20;;;;;;;25.37;12.10;;;-5.40;99.90;;;;;;5048203;28;20025;-77
2023/02/08 01:05:45;;;;;;;24.77;11.40;;;-5.50;99.90;;;;;;5035227;28;20028;-77
2023/02/08 01:08:11;;;;;;;26.37;11.83;;;-5.50;99.90;;;;;;5049284;28;20025;-77
2023/02/08 01:10:37;;;;;;;24.03;12.33;;;-5.40;99.90;;;;;;5040289;28;20096;-77
2023/02/08 01:13:02;;;;;;;25.00;12.17;;;-5.50;99.90;;;;;;5043481;28;20387;-77
2023/02/08 01:15:28;;;;;;;24.27;11.37;;;-5.50;99.90;;;;;;5051465;28;20451;-77
2023/02/08 01:17:55;;;;;;;23.67;12.93;;;-5.50;99.90;;;;;;5039045;28;20436;-77
2023/02/08 01:20:21;;;;;;;25.93;12.30;;;-5.60;99.90;;;;;;5042199;28;20116;-77
2023/02/08 01:22:47;;;;;;;26.13;12.77;;;-5.60;99.90;;;;;;5046255;28;20069;-77
2023/02/08 01:25:12;;;;;;;24.83;12.10;;;-5.60;99.90;;;;;;5053300;28;20029;-77
2023/02/08 01:27:38;;;;;;;22.80;13.07;;;-5.60;99.90;;;;;;5043473;28;20033;-77
2023/02/08 01:30:04;;;;;;;23.73;11.50;;;-5.60;99.90;;;;;;5037945;28;20021;-77
2023/02/08 01:32:29;;;;;;;25.20;11.73;;;-5.60;99.90;;;;;;5036019;28;20022;-77
2023/02/08 01:34:55;;;;;;;24.63;12.40;;;-5.70;99.90;;;;;;5036706;28;20032;-77
2023/02/08 01:37:20;;;;;;;25.17;12.23;;;-5.70;99.90;;;;;;5034858;28;20021;-77
2023/02/08 01:39:46;;;;;;;24.20;12.70;;;-5.70;99.90;;;;;;5045205;28;20036;-77
2023/02/08 01:42:17;;;;;;;26.07;12.93;;;-5.70;99.90;;;;;;5048141;28;20497;-77
2023/02/08 01:45:11;;;;;;;23.70;11.97;;;-5.70;99.90;;;;;;5043075;28;20481;-77
2023/02/08 01:47:37;;;;;;;25.17;12.43;;;-5.70;99.90;;;;;;5033844;28;20048;-77
2023/02/08 01:50:03;;;;;;;24.50;11.80;;;-5.70;99.90;;;;;;5044757;28;20037;-77
2023/02/08 01:52:29;;;;;;;24.07;12.00;;;-5.70;99.90;;;;;;5044140;28;20032;-77
2023/02/08 01:55:29;;;;;;;24.87;12.57;;;-5.70;99.90;;;;;;5034258;28;20028;-77
2023/02/08 01:57:58;;;;;;;27.23;13.27;;;-5.80;99.90;;;;;;5016543;28;20467;-77
2023/02/08 02:00:24;;;;;;;26.53;12.63;;;-5.80;99.90;;;;;;5039033;28;20033;-77
2023/02/08 02:02:53;;;;;;;26.87;12.37;;;-5.80;99.90;;;;;;5042092;28;20025;-77
2023/02/08 02:05:23;;;;;;;28.17;12.23;;;-5.80;99.90;;;;;;5034201;28;20374;-77
2023/02/08 02:07:50;;;;;;;25.33;11.83;;;-5.80;99.90;;;;;;5033440;28;20117;-77
2023/02/08 02:10:31;;;;;;;24.80;12.40;;;-5.80;99.90;;;;;;5039994;28;20118;-77
2023/02/08 02:13:12;;;;;;;28.30;13.87;;;-5.90;99.90;;;;;;5046700;28;20037;-77
2023/02/08 02:15:38;;;;;;;26.67;13.10;;;-5.90;99.90;;;;;;5046208;28;20426;-77
2023/02/08 02:18:06;;;;;;;27.70;13.07;;;-5.90;99.90;;;;;;5037549;28;20074;-77
2023/02/08 02:21:08;;;;;;;27.00;12.93;;;-5.90;99.90;;;;;;5057625;28;20025;-77
2023/02/08 02:23:55;;;;;;;26.23;12.70;;;-5.90;99.90;;;;;;5043008;28;20026;-78
2023/02/08 02:26:38;;;;;;;27.53;14.60;;;-5.90;99.90;;;;;;5035044;28;20025;-78
2023/02/08 02:29:16;;;;;;;28.37;12.63;;;-5.90;99.90;;;;;;5053994;28;20401;-77
2023/02/08 02:32:03;;;;;;;26.80;13.63;;;-5.90;99.90;;;;;;5042507;28;20030;-78
2023/02/08 02:34:31;;;;;;;28.83;14.33;;;-5.90;99.90;;;;;;5049145;28;20032;-78
2023/02/08 02:37:17;;;;;;;31.87;14.83;;;-5.90;99.90;;;;;;5033124;28;20017;-78
2023/02/08 02:39:55;;;;;;;29.45;14.68;;;-6.00;99.90;;;;;;5032963;28;20378;-78
2023/02/08 02:45:26;;;;;;;30.87;13.90;;;-6.00;99.90;;;;;;5045702;28;20036;-78
2023/02/08 02:48:04;;;;;;;28.23;14.00;;;-5.90;99.90;;;;;;5049655;28;20315;-77
2023/02/08 02:50:47;;;;;;;30.10;13.47;;;-5.90;99.90;;;;;;5044313;28;20036;-77
2023/02/08 02:53:24;;;;;;;31.27;14.40;;;-5.90;99.90;;;;;;5044262;28;20021;-77
2023/02/08 02:55:57;;;;;;;29.30;14.67;;;-5.90;99.90;;;;;;5016156;28;20026;-77
2023/02/08 02:58:25;;;;;;;29.53;15.20;;;-5.90;99.90;;;;;;5040271;28;20018;-78
2023/02/08 03:00:56;;;;;;;29.00;15.00;;;-5.90;99.90;;;;;;5046003;28;20025;-77
2023/02/08 03:03:26;;;;;;;28.10;14.83;;;-5.90;99.90;;;;;;5048777;28;20025;-78
2023/02/08 03:05:57;;;;;;;30.43;14.27;;;-5.90;99.90;;;;;;5047559;28;20095;-78
2023/02/08 03:09:11;;;;;;;29.93;14.77;;;-6.00;99.90;;;;;;5047559;28;20021;-78
2023/02/08 03:11:38;;;;;;;26.87;13.90;;;-6.00;99.90;;;;;;5034294;28;20130;-77
2023/02/08 03:14:19;;;;;;;32.03;14.73;;;-6.00;99.90;;;;;;5039962;28;20021;-77
2023/02/08 03:16:55;;;;;;;33.47;15.03;;;-6.00;99.90;;;;;;5053890;28;20476;-78
2023/02/08 03:19:26;;;;;;;32.27;16.10;;;-6.10;99.90;;;;;;5049769;28;20518;-77
2023/02/08 03:22:09;;;;;;;33.13;14.90;;;-6.10;99.90;;;;;;5035577;28;20032;-80
2023/02/08 03:24:45;;;;;;;31.07;14.90;;;-6.10;99.90;;;;;;5025562;28;20057;-80
2023/02/08 03:27:32;;;;;;;31.40;15.33;;;-6.10;99.90;;;;;;5024348;28;20123;-80
2023/02/08 03:30:01;;;;;;;31.53;15.07;;;-6.10;99.90;;;;;;5025548;28;20026;-80
2023/02/08 03:32:49;;;;;;;28.70;13.90;;;-6.20;99.90;;;;;;5024261;28;20094;-80
2023/02/08 03:35:30;;;;;;;31.70;14.60;;;-6.20;99.90;;;;;;5025254;28;20025;-80
2023/02/08 03:38:13;;;;;;;31.10;15.53;;;-6.20;99.90;;;;;;5025849;28;21300;-79
2023/02/08 03:40:44;;;;;;;29.60;14.77;;;-6.20;99.90;;;;;;5025613;28;20030;-79
2023/02/08 03:43:28;;;;;;;31.57;15.33;;;-6.20;99.90;;;;;;5025281;28;20124;-80
2023/02/08 03:46:02;;;;;;;32.17;15.43;;;-6.20;99.90;;;;;;5025128;28;20029;-80
2023/02/08 03:48:29;;;;;;;29.90;14.37;;;-6.20;99.90;;;;;;5024947;28;20037;-80
2023/02/08 03:50:57;;;;;;;41.43;16.23;;;-6.20;99.90;;;;;;5025178;28;20037;-79
2023/02/08 03:53:24;;;;;;;37.97;16.60;;;-6.20;99.90;;;;;;5023213;28;20479;-80
2023/02/08 03:55:57;;;;;;;35.33;16.40;;;-6.20;99.90;;;;;;5023486;28;20363;-80
2023/02/08 03:58:29;;;;;;;33.73;15.53;;;-6.20;99.90;;;;;;5025305;28;20494;-79
2023/02/08 04:01:00;;;;;;;35.23;16.70;;;-6.20;99.90;;;;;;5024728;28;20479;-80
2023/02/08 04:03:29;;;;;;;34.20;17.00;;;-6.20;99.90;;;;;;5023361;28;21702;-80
2023/02/08 04:05:55;;;;;;;35.43;16.97;;;-6.20;99.90;;;;;;5023331;28;20271;-80
2023/02/08 04:08:20;;;;;;;32.63;16.33;;;-6.20;99.90;;;;;;5024631;28;20450;-79
2023/02/08 04:10:49;;;;;;;34.33;16.30;;;-6.20;99.90;;;;;;5024118;28;20072;-79
2023/02/08 04:13:14;;;;;;;34.87;16.47;;;-6.20;99.90;;;;;;5024612;28;20079;-80
2023/02/08 04:15:40;;;;;;;37.70;17.53;;;-6.20;99.90;;;;;;5024597;28;20024;-80
2023/02/08 04:18:05;;;;;;;36.93;17.20;;;-6.20;99.90;;;;;;5024635;28;20077;-79
2023/02/08 04:20:31;;;;;;;36.17;17.07;;;-6.20;99.90;;;;;;5024266;28;20025;-80
2023/02/08 04:22:56;;;;;;;36.57;17.03;;;-6.20;99.90;;;;;;5022691;28;20029;-80
2023/02/08 04:25:22;;;;;;;36.10;17.03;;;-6.20;99.90;;;;;;5024644;28;20471;-80
2023/02/08 04:27:50;;;;;;;38.00;17.03;;;-6.20;99.90;;;;;;5023011;28;20507;-79
2023/02/08 04:30:15;;;;;;;32.57;15.73;;;-6.20;99.90;;;;;;5024343;28;20512;-80
2023/02/08 04:32:41;;;;;;;37.03;18.07;;;-6.20;99.90;;;;;;5024604;28;20310;-79
2023/02/08 04:35:07;;;;;;;32.23;15.97;;;-6.20;99.90;;;;;;5023920;28;20080;-80
2023/02/08 04:37:32;;;;;;;36.97;17.80;;;-6.30;99.90;;;;;;5024365;28;20025;-80
2023/02/08 04:39:58;;;;;;;36.93;17.10;;;-6.30;99.90;;;;;;5024468;28;20029;-79
2023/02/08 04:42:23;;;;;;;40.43;18.07;;;-6.30;99.90;;;;;;5022659;28;20124;-80
2023/02/08 04:44:49;;;;;;;34.43;17.37;;;-6.30;99.90;;;;;;5023646;28;20025;-79
2023/02/08 04:47:14;;;;;;;38.27;17.27;;;-6.30;99.90;;;;;;5023523;28;20033;-79
2023/02/08 04:49:40;;;;;;;34.40;16.90;;;-6.30;99.90;;;;;;5023610;28;20064;-79
2023/02/08 04:52:05;;;;;;;36.03;17.53;;;-6.30;99.90;;;;;;5023055;28;20029;-79
2023/02/08 04:54:32;;;;;;;34.90;16.67;;;-6.30;99.90;;;;;;5023893;28;20335;-79
2023/02/08 04:56:57;;;;;;;36.63;16.87;;;-6.30;99.90;;;;;;5022171;28;20025;-79
2023/02/08 04:59:23;;;;;;;33.57;17.13;;;-6.30;99.90;;;;;;5023520;28;20360;-79
2023/02/08 05:01:49;;;;;;;35.57;16.73;;;-6.30;99.90;;;;;;5023305;28;20017;-79
2023/02/08 05:04:14;;;;;;;39.10;16.27;;;-6.40;99.90;;;;;;5022967;28;20049;-79
2023/02/08 05:06:40;;;;;;;39.53;17.57;;;-6.40;99.90;;;;;;5021860;28;20486;-79
2023/02/08 05:09:07;;;;;;;37.57;17.17;;;-6.30;99.90;;;;;;5021694;28;20105;-79
2023/02/08 05:11:33;;;;;;;39.07;18.13;;;-6.40;99.90;;;;;;5047488;28;20090;-79
2023/02/08 05:13:59;;;;;;;33.70;16.50;;;-6.40;99.90;;;;;;5025014;28;20087;-71
2023/02/08 05:16:25;;;;;;;36.37;18.07;;;-6.40;99.90;;;;;;5023877;28;20041;-79
2023/02/08 05:18:50;;;;;;;50.90;26.87;;;-6.40;99.90;;;;;;5022239;28;20445;-79
2023/02/08 05:21:16;;;;;;;54.13;28.97;;;-6.40;99.90;;;;;;5023336;28;20018;-79
2023/02/08 05:23:42;;;;;;;44.33;22.63;;;-6.40;99.90;;;;;;5022871;28;20033;-80
2023/02/08 05:26:10;;;;;;;40.67;22.47;;;-6.40;99.90;;;;;;5023972;28;20033;-79
2023/02/08 05:28:36;;;;;;;47.17;21.60;;;-6.30;99.90;;;;;;5023139;28;20040;-79
2023/02/08 05:31:16;;;;;;;38.43;19.07;;;-6.30;99.90;;;;;;5023307;28;20130;-79
2023/02/08 05:33:41;;;;;;;33.83;17.00;;;-6.30;99.90;;;;;;5022040;28;20283;-79
2023/02/08 05:36:07;;;;;;;35.37;17.37;;;-6.30;99.90;;;;;;5022318;28;20025;-79
2023/02/08 05:38:33;;;;;;;38.37;19.60;;;-6.30;99.90;;;;;;5022311;28;20018;-79
2023/02/08 05:40:59;;;;;;;36.93;18.20;;;-6.30;99.90;;;;;;5023850;28;20025;-79
2023/02/08 05:43:24;;;;;;;40.93;18.00;;;-6.30;99.90;;;;;;5021546;28;20029;-79
2023/02/08 05:45:50;;;;;;;43.20;25.73;;;-6.30;99.90;;;;;;5024091;28;20065;-79
2023/02/08 05:48:16;;;;;;;42.03;22.60;;;-6.40;99.90;;;;;;5023174;28;20033;-79
2023/02/08 05:50:42;;;;;;;37.87;19.00;;;-6.40;99.90;;;;;;5022886;28;20048;-79
2023/02/08 05:53:07;;;;;;;41.37;21.67;;;-6.40;99.90;;;;;;5022859;28;20569;-79
2023/02/08 05:55:33;;;;;;;39.90;18.97;;;-6.40;99.90;;;;;;5022556;28;20060;-79
2023/02/08 05:57:58;;;;;;;41.27;19.50;;;-6.40;99.90;;;;;;5023170;28;20028;-79
2023/02/08 06:00:24;;;;;;;41.00;17.70;;;-6.40;99.90;;;;;;5022476;28;20112;-79
2023/02/08 06:02:50;;;;;;;41.70;18.23;;;-6.40;99.90;;;;;;5023069;28;20156;-79
2023/02/08 06:05:15;;;;;;;40.23;19.40;;;-6.40;99.90;;;;;;5023406;28;20706;-79
2023/02/08 06:07:41;;;;;;;35.10;18.40;;;-6.40;99.90;;;;;;5020889;28;20133;-79
2023/02/08 06:10:08;;;;;;;99.73;38.43;;;-6.40;99.90;;;;;;5023075;28;20115;-79
2023/02/08 06:12:33;;;;;;;88.00;38.57;;;-6.40;99.90;;;;;;5022948;28;20621;-79
2023/02/08 06:14:59;;;;;;;44.23;21.37;;;-6.40;99.90;;;;;;5024398;28;20025;-79
2023/02/08 06:17:24;;;;;;;41.00;19.23;;;-6.40;99.90;;;;;;5025370;28;20033;-79
2023/02/08 06:19:50;;;;;;;40.07;18.80;;;-6.40;99.90;;;;;;5026960;28;20044;-79
2023/02/08 06:22:15;;;;;;;37.40;18.63;;;-6.40;99.90;;;;;;5026615;28;20564;-79
2023/02/08 06:24:41;;;;;;;41.43;20.93;;;-6.40;99.90;;;;;;5026933;28;20037;-79
2023/02/08 06:27:07;;;;;;;37.93;18.23;;;-6.40;99.90;;;;;;5026453;28;20397;-79
2023/02/08 06:29:33;;;;;;;40.07;18.80;;;-6.40;99.90;;;;;;5025291;28;20417;-79
2023/02/08 06:31:58;;;;;;;34.17;17.50;;;-6.30;99.90;;;;;;5024923;28;20053;-78
2023/02/08 06:34:24;;;;;;;33.53;16.23;;;-6.30;99.90;;;;;;5026751;28;20760;-79
2023/02/08 06:36:49;;;;;;;33.23;15.23;;;-6.30;99.90;;;;;;5026831;28;20030;-78
2023/02/08 06:39:16;;;;;;;38.30;16.63;;;-6.20;99.90;;;;;;5023668;28;20117;-78
2023/02/08 06:41:41;;;;;;;41.07;17.70;;;-6.20;99.90;;;;;;5032776;28;20024;-77
2023/02/08 06:44:07;;;;;;;42.53;16.47;;;-6.10;99.90;;;;;;5054640;28;20474;-77
2023/02/08 06:46:32;;;;;;;35.17;15.93;;;-6.20;99.90;;;;;;5044235;28;20117;-77
2023/02/08 06:48:59;;;;;;;39.57;18.93;;;-6.20;99.90;;;;;;5047440;28;20250;-78
2023/02/08 06:51:25;;;;;;;43.90;17.67;;;-6.10;99.90;;;;;;5051180;28;20044;-78
2023/02/08 06:53:50;;;;;;;43.70;18.47;;;-6.10;99.90;;;;;;5045212;28;20386;-78
2023/02/08 06:56:16;;;;;;;38.57;18.93;;;-6.10;99.90;;;;;;5046110;28;20017;-77
2023/02/08 06:58:42;;;;;;;41.80;19.83;;;-6.10;99.90;;;;;;5042967;28;20022;-78
2023/02/08 07:01:13;;;;;;;40.83;19.90;;;-6.10;99.90;;;;;;5043868;28;20086;-78
2023/02/08 07:03:39;;;;;;;39.23;18.40;;;-6.10;99.90;;;;;;5044095;28;20037;-78
2023/02/08 07:06:10;;;;;;;40.47;18.50;;;-6.10;99.90;;;;;;5042428;28;20025;-78
2023/02/08 07:08:36;;;;;;;39.43;18.40;;;-6.10;99.90;;;;;;5067861;28;20036;-78
2023/02/08 07:11:11;;;;;;;37.27;18.07;;;-6.00;99.90;;;;;;5050843;28;20029;-78
2023/02/08 07:13:37;;;;;;;;;;;-6.00;99.90;;;;;;5040896;28;20051;-79
2023/02/08 07:16:04;;;;;;;35.53;17.90;;;-5.90;99.90;;;;;;5042758;28;19912;-78
2023/02/08 07:18:30;;;;;;;36.20;17.07;;;-5.90;99.90;;;;;;5039793;28;20271;-78
2023/02/08 07:20:56;;;;;;;38.20;17.83;;;-5.80;99.90;;;;;;5043373;28;20413;-78
2023/02/08 07:23:22;;;;;;;46.60;21.70;;;-5.70;99.90;;;;;;5042950;28;20032;-78
2023/02/08 07:26:16;;;;;;;45.97;21.17;;;-5.60;99.90;;;;;;5044416;28;20415;-78
2023/02/08 07:28:42;;;;;;;96.53;37.27;;;-5.60;99.90;;;;;;5031869;28;20095;-78
2023/02/08 07:31:11;;;;;;;52.00;25.37;;;-5.50;99.90;;;;;;5043453;28;20036;-78
2023/02/08 07:33:37;;;;;;;58.30;24.93;;;-5.40;99.90;;;;;;5041518;28;20017;-78
2023/02/08 07:36:04;;;;;;;57.30;27.20;;;-5.40;99.90;;;;;;5046560;28;20024;-78
2023/02/08 07:38:31;;;;;;;48.90;23.57;;;-5.40;99.90;;;;;;5046615;28;20410;-78
2023/02/08 07:41:05;;;;;;;67.40;28.90;;;-5.30;99.90;;;;;;5040459;28;20394;-78
2023/02/08 07:43:33;;;;;;;56.00;24.85;;;-5.30;99.90;;;;;;5050287;28;20021;-78
2023/02/08 07:46:15;;;;;;;53.83;22.23;;;-5.30;99.90;;;;;;5048896;28;20029;-78
2023/02/08 07:48:41;;;;;;;70.23;33.07;;;-5.20;99.90;;;;;;5042362;28;20502;-78
2023/02/08 07:51:07;;;;;;;44.17;21.60;;;-5.20;99.90;;;;;;5039903;28;20087;-78
2023/02/08 07:53:33;;;;;;;56.00;25.17;;;-5.10;99.90;;;;;;5042014;28;20486;-78
2023/02/08 07:55:59;;;;;;;50.30;23.63;;;-5.10;99.90;;;;;;5039185;28;20142;-78
2023/02/08 07:58:25;;;;;;;40.87;18.50;;;-5.00;99.90;;;;;;5043978;28;21302;-77
2023/02/08 08:00:50;;;;;;;40.27;19.73;;;-4.90;99.90;;;;;;5043682;28;20028;-77
2023/02/08 08:03:17;;;;;;;39.70;18.57;;;-4.80;99.90;;;;;;5037590;28;20063;-77
2023/02/08 08:05:42;;;;;;;39.33;18.73;;;-4.80;99.90;;;;;;5030546;28;20144;-79
2023/02/08 08:08:10;;;;;;;43.90;19.00;;;-4.70;99.90;;;;;;5022530;28;20476;-79
2023/02/08 08:10:35;;;;;;;35.50;17.83;;;-4.60;99.90;;;;;;5029761;28;20041;-79
2023/02/08 08:13:01;;;;;;;37.33;18.67;;;-4.50;99.90;;;;;;5041965;28;20028;-78
2023/02/08 08:15:27;;;;;;;37.30;18.27;;;-4.40;99.90;;;;;;5038654;28;20024;-78
2023/02/08 08:17:53;;;;;;;47.70;20.93;;;-4.40;99.90;;;;;;5040361;28;20017;-78
2023/02/08 08:20:18;;;;;;;38.20;17.80;;;-4.30;99.90;;;;;;5038289;28;21000;-78
2023/02/08 08:22:44;;;;;;;43.07;17.70;;;-4.30;99.90;;;;;;5035651;28;20109;-78
2023/02/08 08:25:10;;;;;;;36.00;19.03;;;-4.10;99.90;;;;;;5040238;28;20454;-78
2023/02/08 08:27:36;;;;;;;35.63;18.07;;;-4.00;99.90;;;;;;5048354;28;20041;-78
2023/02/08 08:30:03;;;;;;;38.57;17.37;;;-3.90;99.90;;;;;;5035257;28;20742;-79
2023/02/08 08:32:28;;;;;;;37.83;17.67;;;-3.80;99.90;;;;;;5028543;28;20044;-79
2023/02/08 08:34:54;;;;;;;37.37;17.30;;;-3.70;99.90;;;;;;5028772;28;20409;-80
2023/02/08 08:37:19;;;;;;;44.90;20.67;;;-3.60;99.90;;;;;;5026924;28;20091;-79
2023/02/08 08:39:45;;;;;;;54.80;24.67;;;-3.50;99.90;;;;;;5026217;28;20083;-79
2023/02/08 08:42:10;;;;;;;44.17;21.17;;;-3.40;99.90;;;;;;5023724;28;20036;-79
2023/02/08 08:44:36;;;;;;;72.40;29.63;;;-3.30;99.90;;;;;;5023040;28;20037;-79
2023/02/08 08:47:02;;;;;;;45.73;20.80;;;-3.20;99.90;;;;;;5024079;28;20048;-79
2023/02/08 08:49:28;;;;;;;45.40;20.03;;;-3.00;99.90;;;;;;5022322;28;20029;-79
2023/02/08 08:51:54;;;;;;;102.43;36.80;;;-2.90;99.90;;;;;;5023258;28;20029;-79
2023/02/08 08:54:20;;;;;;;78.80;23.00;;;-2.90;99.90;;;;;;5021013;28;20043;-79
2023/02/08 08:56:47;;;;;;;44.67;20.60;;;-2.90;99.90;;;;;;5022657;28;20090;-78
2023/02/08 08:59:13;;;;;;;87.50;37.27;;;-2.80;99.90;;;;;;5023653;28;20104;-79
2023/02/08 09:01:41;;;;;;;69.60;29.63;;;-2.70;99.90;;;;;;5024266;28;20034;-79
2023/02/08 09:04:06;;;;;;;48.20;22.57;;;-2.60;99.90;;;;;;5023857;28;20029;-79
2023/02/08 09:06:33;;;;;;;43.17;21.07;;;-2.50;99.90;;;;;;5023376;28;20191;-79
2023/02/08 09:08:59;;;;;;;32.33;16.10;;;-2.50;99.90;;;;;;5022820;28;20411;-79
2023/02/08 09:11:24;;;;;;;42.77;22.53;;;-2.40;99.90;;;;;;5023034;28;20037;-79
2023/02/08 09:13:52;;;;;;;50.87;27.70;;;-2.40;99.90;;;;;;5024136;28;20064;-79
2023/02/08 09:16:18;;;;;;;43.77;23.17;;;-2.40;99.90;;;;;;5023665;28;20080;-79
2023/02/08 09:18:44;;;;;;;30.60;16.47;;;-2.30;99.90;;;;;;5023514;28;20024;-79
2023/02/08 09:21:21;;;;;;;33.73;17.30;;;-2.20;99.90;;;;;;5021803;28;20025;-79
2023/02/08 09:23:47;;;;;;;28.17;13.67;;;-2.20;99.90;;;;;;5021770;28;20044;-79
2023/02/08 09:26:15;;;;;;;31.00;16.20;;;-2.10;99.90;;;;;;5023113;28;20462;-79
2023/02/08 09:28:41;;;;;;;38.43;18.97;;;-2.10;99.90;;;;;;5024462;28;20056;-79
2023/02/08 09:31:07;;;;;;;37.70;17.47;;;-2.00;99.90;;;;;;5027964;28;20037;-79
2023/02/08 09:33:33;;;;;;;33.67;16.90;;;-2.00;99.90;;;;;;5027276;28;20025;-79
2023/02/08 09:35:58;;;;;;;29.67;16.57;;;-2.00;99.90;;;;;;5029986;28;20532;-79
2023/02/08 09:38:24;;;;;;;34.90;16.30;;;-2.00;99.90;;;;;;5030653;28;20074;-80
2023/02/08 09:41:02;;;;;;;36.77;16.90;;;-1.90;99.90;;;;;;5022031;28;20025;-80
2023/02/08 09:43:41;;;;;;;31.37;16.37;;;-1.80;99.90;;;;;;5020507;28;20056;-80
2023/02/08 09:46:27;;;;;;;35.77;18.00;;;-1.80;99.90;;;;;;5023967;28;20026;-77
2023/02/08 09:48:57;;;;;;;35.20;16.40;;;-1.70;99.90;;;;;;5041704;28;20042;-77
2023/02/08 09:51:31;;;;;;;31.73;16.23;;;-1.70;99.90;;;;;;5036856;28;20049;-78
2023/02/08 09:54:20;;;;;;;30.77;15.30;;;-1.60;99.90;;;;;;5040432;28;20028;-77
2023/02/08 09:56:47;;;;;;;40.30;16.40;;;-1.50;99.90;;;;;;5045931;28;20117;-77
2023/02/08 09:59:23;;;;;;;29.37;15.23;;;-1.50;99.90;;;;;;5042184;28;20072;-77
2023/02/08 10:01:49;;;;;;;;;;;-1.40;99.90;;;;;;5033313;28;20025;-80
2023/02/08 10:04:36;;;;;;;27.47;14.77;;;-1.40;99.90;;;;;;5027231;28;19940;-79
2023/02/08 10:07:02;;;;;;;34.40;17.00;;;-1.30;99.90;;;;;;5026119;28;20120;-79
2023/02/08 10:09:28;;;;;;;32.03;16.00;;;-1.30;99.90;;;;;;5024888;28;20501;-79
2023/02/08 10:12:13;;;;;;;29.80;15.00;;;-1.20;99.90;;;;;;5024828;28;20024;-79
2023/02/08 10:15:01;;;;;;;33.42;17.60;;;-1.30;99.90;;;;;;5024985;28;20045;-79
2023/02/08 10:17:32;;;;;;;34.20;15.50;;;-1.30;99.90;;;;;;5027119;28;20052;-80
2023/02/08 10:20:00;;;;;;;27.80;15.43;;;-1.20;99.90;;;;;;5026476;28;20033;-80
2023/02/08 10:22:38;;;;;;;38.03;17.43;;;-1.20;99.90;;;;;;5026076;28;20033;-80
2023/02/08 10:25:18;;;;;;;54.80;25.20;;;-1.20;99.90;;;;;;5024604;28;20091;-80
2023/02/08 10:28:13;;;;;;;68.73;28.87;;;-1.20;99.90;;;;;;5023868;28;20124;-80
2023/02/08 10:30:55;;;;;;;48.43;20.13;;;-1.30;99.90;;;;;;5026623;28;20035;-80
2023/02/08 10:33:26;;;;;;;62.90;27.83;;;-1.10;99.90;;;;;;5026139;28;20063;-80
2023/02/08 10:35:53;;;;;;;31.50;16.50;;;-1.10;99.90;;;;;;5025785;28;20030;-80
2023/02/08 10:38:18;;;;;;;30.17;15.77;;;-1.10;99.90;;;;;;5026248;28;20061;-80
2023/02/08 10:40:47;;;;;;;31.43;16.73;;;-1.10;99.90;;;;;;5026968;28;20107;-80
2023/02/08 10:43:31;;;;;;;28.93;16.03;;;-1.10;99.90;;;;;;5026751;28;20022;-81
2023/02/08 10:46:15;;;;;;;27.87;15.97;;;-1.00;99.90;;;;;;5026873;28;20033;-80
2023/02/08 10:49:02;;;;;;;30.97;15.13;;;-1.00;99.90;;;;;;5025466;28;20068;-81
2023/02/08 10:51:31;;;;;;;28.03;15.03;;;-0.90;99.90;;;;;;5024872;28;21355;-81
2023/02/08 10:53:56;;;;;;;33.40;17.57;;;-0.80;99.90;;;;;;5026612;28;20080;-80
2023/02/08 10:56:44;;;;;;;36.93;17.83;;;-0.70;99.90;;;;;;5024747;28;20033;-80
2023/02/08 10:59:24;;;;;;;44.70;21.80;;;-0.60;99.90;;;;;;5024049;28;20042;-81
2023/02/08 11:01:52;;;;;;;42.50;18.70;;;-0.50;99.90;;;;;;5026094;28;20359;-81
2023/02/08 11:04:18;;;;;;;37.33;18.67;;;-0.30;99.90;;;;;;5025738;28;20716;-81
2023/02/08 11:06:45;;;;;;;33.17;16.63;;;-0.20;99.90;;;;;;5026095;28;20036;-81
2023/02/08 11:09:30;;;;;;;35.43;18.03;;;-0.20;99.90;;;;;;5024347;28;20054;-81
2023/02/08 11:11:59;;;;;;;46.65;22.35;;;-0.20;99.90;;;;;;5025753;28;20021;-81
2023/02/08 11:14:34;;;;;;;47.47;22.23;;;-0.20;99.90;;;;;;5025600;28;21342;-81
2023/02/08 11:16:59;;;;;;;34.03;16.95;;;-0.30;99.90;;;;;;5025705;28;20025;-81
2023/02/08 11:19:41;;;;;;;30.87;15.30;;;-0.30;99.90;;;;;;5026005;28;20811;-80
2023/02/08 11:22:16;;;;;;;39.00;20.13;;;-0.20;99.90;;;;;;5025912;28;20528;-81
2023/02/08 11:24:49;;;;;;;47.30;23.40;;;-0.10;99.90;;;;;;5024866;28;20040;-81
2023/02/08 11:27:32;;;;;;;49.97;27.27;;;-0.20;99.90;;;;;;5025290;28;20033;-81
2023/02/08 11:30:18;;;;;;;41.67;23.87;;;-0.20;99.90;;;;;;5025730;28;20026;-81
2023/02/08 11:32:46;;;;;;;40.10;20.53;;;-0.20;99.90;;;;;;5025964;28;20033;-81
2023/02/08 11:35:24;;;;;;;47.47;26.37;;;-0.20;99.90;;;;;;5025438;28;21039;-81
2023/02/08 11:37:52;;;;;;;45.70;23.73;;;-0.10;99.90;;;;;;5023986;28;20500;-81
2023/02/08 11:40:20;;;;;;;43.40;23.73;;;-0.10;99.90;;;;;;5025477;28;21347;-81
2023/02/08 11:42:46;;;;;;;40.80;21.50;;;-0.20;99.90;;;;;;5025709;28;20153;-81
2023/02/08 11:45:23;;;;;;;57.03;33.00;;;-0.10;99.90;;;;;;5025694;28;20025;-81
2023/02/08 11:47:49;;;;;;;34.97;19.37;;;0.00;99.90;;;;;;5025578;28;20164;-81
2023/02/08 11:50:31;;;;;;;36.37;19.23;;;0.10;99.90;;;;;;5024790;28;20077;-81
2023/02/08 11:53:03;;;;;;;30.77;17.73;;;0.10;99.90;;;;;;5025294;28;20021;-81
2023/02/08 11:55:31;;;;;;;35.17;18.30;;;0.10;99.90;;;;;;5023364;28;20033;-82
2023/02/08 11:58:12;;;;;;;33.23;17.83;;;0.20;99.90;;;;;;5024994;28;20032;-81
2023/02/08 12:00:39;;;;;;;31.33;17.67;;;0.20;99.90;;;;;;5025159;28;20022;-81
2023/02/08 12:03:17;;;;;;;34.33;18.40;;;0.20;99.90;;;;;;5025670;28;20034;-81
2023/02/08 12:05:48;;;;;;;30.70;17.90;;;0.30;99.90;;;;;;5025800;28;20746;-81
2023/02/08 12:08:50;;;;;;;34.60;18.67;;;0.40;99.90;;;;;;5023937;28;20059;-81
2023/02/08 12:12:01;;;;;;;38.10;18.03;;;0.40;99.90;;;;;;5025575;28;20502;-81
2023/02/08 12:14:51;;;;;;;32.53;17.53;;;0.40;99.90;;;;;;5004209;28;20050;-81
2023/02/08 12:17:32;;;;;;;32.87;17.77;;;0.50;99.90;;;;;;5023736;28;20083;-81
2023/02/08 12:20:27;;;;;;;33.90;18.20;;;0.60;99.90;;;;;;5024553;28;20029;-81
2023/02/08 12:23:17;;;;;;;31.83;18.73;;;0.80;99.90;;;;;;5034133;28;20059;-79
2023/02/08 12:26:09;;;;;;;32.67;18.87;;;0.90;99.90;;;;;;5037010;28;20033;-78
2023/02/08 12:29:03;;;;;;;33.77;19.27;;;1.00;99.90;;;;;;5042503;28;20013;-78
2023/02/08 12:32:06;;;;;;;32.90;18.50;;;1.00;99.90;;;;;;5037806;28;20068;-78
2023/02/08 12:34:43;;;;;;;33.10;18.97;;;1.20;99.90;;;;;;5039197;28;20473;-78
2023/02/08 12:43:31;;;;;;;35.00;19.73;;;1.00;99.90;;;;;;5042596;28;20028;-78
2023/02/08 12:46:16;;;;;;;32.22;17.98;;;1.00;99.90;;;;;;5039754;28;20083;-78
2023/02/08 12:48:59;;;;;;;33.70;19.30;;;0.90;99.90;;;;;;5037694;28;20029;-78
2023/02/08 12:51:28;;;;;;;32.90;18.83;;;0.80;99.90;;;;;;5043662;28;20041;-78
2023/02/08 12:54:02;;;;;;;33.10;18.03;;;0.90;99.90;;;;;;5043541;28;20013;-80
2023/02/08 12:56:37;;;;;;;33.13;21.03;;;0.90;99.90;;;;;;5043692;28;20369;-80